createdAt,value
2018-05-11T00:01:26.240Z,9.82
2018-05-11T00:03:52.983Z,12.20
2018-05-11T00:06:19.848Z,13.05
2018-05-11T00:08:46.641Z,8.73
2018-05-11T00:11:13.394Z,8.65
2018-05-11T00:13:40.139Z,8.20
2018-05-11T00:16:06.962Z,9.40
2018-05-11T00:18:33.745Z,8.15
2018-05-11T00:21:00.545Z,7.22
2018-05-11T00:23:27.448Z,6.70
2018-05-11T00:25:54.249Z,7.43
2018-05-11T00:28:20.998Z,7.90
2018-05-11T00:30:47.776Z,8.70
2018-05-11T00:33:14.536Z,7.50
2018-05-11T00:35:41.300Z,8.27
2018-05-11T00:38:08.091Z,8.70
2018-05-11T00:40:34.856Z,9.10
2018-05-11T00:43:01.612Z,8.57
2018-05-11T00:45:28.533Z,7.37
2018-05-11T00:47:55.306Z,10.35
2018-05-11T00:50:22.124Z,12.05
2018-05-11T00:52:48.925Z,8.50
2018-05-11T00:55:21.615Z,9.65
2018-05-11T00:57:48.507Z,8.35
2018-05-11T01:00:15.443Z,12.63
2018-05-11T01:02:42.241Z,8.32
2018-05-11T01:05:09.075Z,10.90
2018-05-11T01:07:35.950Z,10.07
2018-05-11T01:10:02.962Z,11.38
2018-05-11T01:12:29.811Z,12.40
2018-05-11T01:14:56.787Z,7.72
2018-05-11T01:17:23.697Z,9.18
2018-05-11T01:19:50.574Z,9.73
2018-05-11T01:22:17.334Z,9.35
2018-05-11T01:24:44.088Z,9.65
2018-05-11T01:27:10.835Z,11.95
2018-05-11T01:29:37.684Z,9.50
2018-05-11T01:32:04.484Z,12.68
2018-05-11T01:34:31.249Z,11.32
2018-05-11T01:36:58.065Z,10.93
2018-05-11T01:39:24.854Z,10.02
2018-05-11T01:41:51.638Z,14.00
2018-05-11T01:44:18.750Z,9.60
2018-05-11T01:46:45.555Z,13.75
2018-05-11T01:49:12.461Z,14.93
2018-05-11T01:51:39.420Z,9.82
2018-05-11T01:54:06.282Z,10.27
2018-05-11T01:56:33.209Z,11.73
2018-05-11T01:59:00.019Z,9.77
2018-05-11T02:01:26.844Z,12.50
2018-05-11T02:03:53.617Z,13.10
2018-05-11T02:06:20.527Z,13.00
2018-05-11T02:08:47.573Z,12.50
2018-05-11T02:11:14.484Z,14.85
2018-05-11T02:13:41.309Z,13.05
2018-05-11T02:16:08.116Z,12.02
2018-05-11T02:18:35.023Z,13.00
2018-05-11T02:21:01.820Z,16.12
2018-05-11T02:23:28.642Z,18.83
2018-05-11T02:25:55.480Z,16.17
2018-05-11T02:28:22.326Z,12.60
2018-05-11T02:30:49.173Z,14.93
2018-05-11T02:33:15.953Z,16.17
2018-05-11T02:35:42.806Z,15.05
2018-05-11T02:38:09.679Z,18.67
2018-05-11T02:40:36.532Z,13.40
2018-05-11T02:43:03.398Z,15.35
2018-05-11T02:45:30.236Z,13.95
2018-05-11T02:47:57.033Z,17.30
2018-05-11T02:50:23.857Z,15.75
2018-05-11T02:52:50.677Z,17.33
2018-05-11T02:55:17.511Z,14.10
2018-05-11T02:57:44.341Z,13.88
2018-05-11T03:00:11.131Z,13.55
2018-05-11T03:02:37.946Z,14.65
2018-05-11T03:05:04.749Z,17.08
2018-05-11T03:07:31.567Z,15.00
2018-05-11T03:09:58.372Z,15.50
2018-05-11T03:12:25.241Z,14.50
2018-05-11T03:14:52.040Z,14.73
2018-05-11T03:17:18.933Z,15.07
2018-05-11T03:19:45.784Z,14.07
2018-05-11T03:22:12.589Z,13.07
2018-05-11T03:24:39.429Z,13.95
2018-05-11T03:27:06.219Z,14.10
2018-05-11T03:29:33.065Z,15.90
2018-05-11T03:31:59.915Z,21.27
2018-05-11T03:34:27.120Z,13.98
2018-05-11T03:36:53.916Z,15.02
2018-05-11T03:39:20.821Z,18.27
2018-05-11T03:41:47.670Z,14.87
2018-05-11T03:44:14.485Z,15.88
2018-05-11T03:46:41.277Z,15.88
2018-05-11T03:49:08.176Z,14.10
2018-05-11T03:51:34.961Z,15.13
2018-05-11T03:54:01.780Z,13.95
2018-05-11T03:56:28.561Z,16.48
2018-05-11T03:58:55.308Z,14.15
2018-05-11T04:01:28.048Z,16.45
2018-05-11T04:04:00.846Z,14.23
2018-05-11T04:06:33.541Z,14.52
2018-05-11T04:09:00.369Z,16.83
2018-05-11T04:11:27.237Z,15.70
2018-05-11T04:13:54.075Z,16.30
2018-05-11T04:16:20.856Z,14.75
2018-05-11T04:18:47.789Z,13.93
2018-05-11T04:21:14.762Z,16.12
2018-05-11T04:23:41.603Z,20.67
2018-05-11T04:26:08.355Z,17.10
2018-05-11T04:28:35.124Z,16.02
2018-05-11T04:31:01.939Z,15.25
2018-05-11T04:33:28.777Z,15.68
2018-05-11T04:35:55.579Z,19.08
2018-05-11T04:38:22.385Z,19.23
2018-05-11T04:40:49.175Z,15.68
2018-05-11T04:43:15.988Z,15.40
2018-05-11T04:45:42.777Z,16.45
2018-05-11T04:48:09.607Z,19.67
2018-05-11T04:50:36.717Z,15.65
2018-05-11T04:53:03.509Z,16.92
2018-05-11T04:55:30.312Z,15.98
2018-05-11T04:57:57.102Z,15.77
2018-05-11T05:00:23.945Z,16.33
2018-05-11T05:02:50.769Z,16.98
2018-05-11T05:05:17.683Z,18.98
2018-05-11T05:07:44.486Z,16.73
2018-05-11T05:10:11.329Z,18.23
2018-05-11T05:12:38.146Z,17.65
2018-05-11T05:15:04.957Z,16.75
2018-05-11T05:17:31.750Z,14.95
2018-05-11T05:19:58.537Z,16.48
2018-05-11T05:22:25.381Z,16.17
2018-05-11T05:24:52.278Z,19.15
2018-05-11T05:27:19.045Z,19.50
2018-05-11T05:29:45.801Z,14.35
2018-05-11T05:32:12.532Z,15.07
2018-05-11T05:34:39.264Z,14.32
2018-05-11T05:37:06.013Z,14.35
2018-05-11T05:39:32.740Z,14.38
2018-05-11T05:41:59.492Z,16.15
2018-05-11T05:44:26.255Z,15.82
2018-05-11T05:46:53.020Z,13.82
2018-05-11T05:49:19.744Z,14.00
2018-05-11T05:51:46.498Z,13.60
2018-05-11T05:54:13.295Z,14.75
2018-05-11T05:56:40.144Z,13.48
2018-05-11T05:59:06.922Z,14.38
2018-05-11T06:01:33.659Z,14.60
2018-05-11T06:04:02.167Z,15.68
2018-05-11T06:06:29.207Z,14.27
2018-05-11T06:08:55.929Z,14.75
2018-05-11T06:11:22.663Z,12.90
2018-05-11T06:13:49.412Z,13.82
2018-05-11T06:16:16.177Z,13.70
2018-05-11T06:18:42.912Z,13.27
2018-05-11T06:21:09.643Z,14.35
2018-05-11T06:23:36.411Z,15.52
2018-05-11T06:26:03.160Z,14.07
2018-05-11T06:28:29.916Z,13.90
2018-05-11T06:30:56.680Z,11.45
2018-05-11T06:33:23.428Z,12.60
2018-05-11T06:35:50.172Z,14.03
2018-05-11T06:38:16.919Z,13.00
2018-05-11T06:40:44.189Z,12.50
2018-05-11T06:43:10.930Z,12.87
2018-05-11T06:45:37.651Z,15.90
2018-05-11T06:48:04.402Z,12.63
2018-05-11T06:50:31.257Z,12.07
2018-05-11T06:52:58.084Z,11.67
2018-05-11T06:55:24.932Z,14.00
2018-05-11T06:57:51.731Z,11.77
2018-05-11T07:00:18.456Z,11.83
2018-05-11T07:02:45.214Z,12.70
2018-05-11T07:05:11.943Z,14.23
2018-05-11T07:07:39.604Z,11.43
2018-05-11T07:10:06.191Z,11.70
2018-05-11T07:12:32.940Z,11.70
2018-05-11T07:14:59.704Z,11.13
2018-05-11T07:17:26.541Z,13.73
2018-05-11T07:19:53.263Z,12.20
2018-05-11T07:22:20.019Z,10.70
2018-05-11T07:24:47.612Z,11.70
2018-05-11T07:27:14.367Z,11.27
2018-05-11T07:29:41.092Z,11.33
2018-05-11T07:32:07.819Z,14.03
2018-05-11T07:34:34.623Z,11.10
2018-05-11T07:37:03.703Z,10.50
2018-05-11T07:39:31.802Z,10.37
2018-05-11T07:41:59.082Z,10.60
2018-05-11T07:44:27.697Z,9.50
2018-05-11T07:46:55.301Z,9.17
2018-05-11T07:49:23.831Z,9.90
2018-05-11T07:51:52.161Z,9.93
2018-05-11T07:54:19.082Z,10.27
2018-05-11T07:56:46.377Z,10.70
2018-05-11T07:59:13.718Z,9.83
2018-05-11T08:01:40.840Z,10.13
2018-05-11T08:04:08.846Z,10.37
2018-05-11T08:06:37.232Z,10.63
2018-05-11T08:09:04.764Z,10.97
2018-05-11T08:11:32.646Z,11.60
2018-05-11T08:14:00.778Z,10.60
2018-05-11T08:16:28.591Z,10.37
2018-05-11T08:18:57.422Z,10.00
2018-05-11T08:21:25.491Z,8.73
2018-05-11T08:23:54.240Z,11.10
2018-05-11T08:26:22.532Z,9.10
2018-05-11T08:28:49.849Z,10.00
2018-05-11T08:31:19.486Z,9.00
2018-05-11T08:33:47.550Z,11.43
2018-05-11T08:36:14.466Z,9.33
2018-05-11T08:38:41.280Z,9.77
2018-05-11T08:41:08.147Z,9.27
2018-05-11T08:43:34.921Z,9.70
2018-05-11T08:46:01.845Z,9.90
2018-05-11T08:48:28.597Z,9.57
2018-05-11T08:50:56.613Z,9.20
2018-05-11T08:53:23.503Z,8.70
2018-05-11T08:55:50.400Z,7.97
2018-05-11T08:58:18.135Z,8.87
2018-05-11T09:00:45.527Z,8.30
2018-05-11T09:03:14.553Z,9.60
2018-05-11T09:05:44.823Z,8.70
2018-05-11T09:08:13.209Z,9.87
2018-05-11T09:10:42.612Z,8.93
2018-05-11T09:13:12.916Z,9.03
2018-05-11T09:15:42.225Z,7.90
2018-05-11T09:18:10.406Z,8.20
2018-05-11T09:20:39.135Z,8.00
2018-05-11T09:23:06.089Z,7.77
2018-05-11T09:25:34.000Z,8.20
2018-05-11T09:28:02.610Z,9.77
2018-05-11T09:30:30.246Z,7.90
2018-05-11T09:32:59.436Z,7.30
2018-05-11T09:35:29.165Z,7.60
2018-05-11T09:37:58.347Z,8.60
2018-05-11T09:40:26.492Z,8.50
2018-05-11T09:42:55.015Z,8.23
2018-05-11T09:45:24.516Z,8.03
2018-05-11T09:47:53.209Z,8.13
2018-05-11T09:50:21.554Z,7.90
2018-05-11T09:52:49.990Z,7.73
2018-05-11T09:55:18.689Z,9.00
2018-05-11T09:57:47.440Z,8.73
2018-05-11T10:00:15.876Z,7.30
2018-05-11T10:02:42.813Z,7.43
2018-05-11T10:05:11.062Z,7.70
2018-05-11T10:07:40.668Z,6.83
2018-05-11T10:10:09.335Z,7.57
2018-05-11T10:12:36.689Z,8.63
2018-05-11T10:15:04.745Z,9.70
2018-05-11T10:17:33.612Z,8.70
2018-05-11T10:20:01.596Z,12.47
2018-05-11T10:22:29.596Z,7.60
2018-05-11T10:24:57.812Z,7.00
2018-05-11T10:27:25.225Z,7.70
2018-05-11T10:29:52.843Z,8.60
2018-05-11T10:32:20.431Z,8.33
2018-05-11T10:34:48.294Z,9.90
2018-05-11T10:37:16.182Z,8.67
2018-05-11T10:39:44.591Z,7.53
2018-05-11T10:42:12.803Z,8.30
2018-05-11T10:44:39.839Z,7.57
2018-05-11T10:47:07.654Z,7.77
2018-05-11T10:49:35.623Z,8.10
2018-05-11T10:52:02.632Z,7.83
2018-05-11T10:54:29.721Z,8.07
2018-05-11T10:56:57.128Z,8.50
2018-05-11T10:59:24.813Z,10.60
2018-05-11T11:01:51.671Z,9.20
2018-05-11T11:04:18.424Z,7.47
2018-05-11T11:06:45.174Z,8.30
2018-05-11T11:09:11.922Z,8.80
2018-05-11T11:11:38.681Z,8.43
2018-05-11T11:14:05.404Z,7.33
2018-05-11T11:16:32.119Z,8.10
2018-05-11T11:18:59.290Z,8.43
2018-05-11T11:21:26.062Z,8.23
2018-05-11T11:23:52.794Z,7.60
2018-05-11T11:26:19.544Z,8.60
2018-05-11T11:28:46.318Z,10.30
2018-05-11T11:31:13.053Z,8.30
2018-05-11T11:33:39.782Z,8.07
2018-05-11T11:36:06.528Z,8.17
2018-05-11T11:38:33.486Z,7.93
2018-05-11T11:41:00.290Z,8.30
2018-05-11T11:43:27.017Z,7.87
2018-05-11T11:45:53.749Z,8.80
2018-05-11T11:48:20.541Z,8.10
2018-05-11T11:50:47.301Z,8.07
2018-05-11T11:53:14.025Z,7.57
2018-05-11T11:55:40.743Z,9.90
2018-05-11T11:58:07.472Z,8.47
2018-05-11T12:00:34.291Z,8.00
2018-05-11T12:03:01.011Z,8.43
2018-05-11T12:05:27.961Z,7.77
2018-05-11T12:07:54.806Z,8.80
2018-05-11T12:10:21.664Z,10.50
2018-05-11T12:12:48.514Z,9.23
2018-05-11T12:15:15.439Z,7.87
2018-05-11T12:17:42.405Z,7.57
2018-05-11T12:20:09.153Z,8.80
2018-05-11T12:22:36.035Z,7.77
2018-05-11T12:25:02.913Z,8.30
2018-05-11T12:27:30.164Z,8.90
2018-05-11T12:29:57.343Z,8.13
2018-05-11T12:32:24.371Z,8.87
2018-05-11T12:34:51.239Z,8.53
2018-05-11T12:37:21.625Z,10.10
2018-05-11T12:39:48.638Z,9.00
2018-05-11T12:42:15.552Z,9.97
2018-05-11T12:44:42.497Z,9.30
2018-05-11T12:47:09.403Z,11.60
2018-05-11T12:49:36.214Z,10.67
2018-05-11T12:52:03.198Z,10.67
2018-05-11T12:54:30.097Z,9.80
2018-05-11T12:56:57.263Z,8.87
2018-05-11T12:59:24.101Z,8.73
2018-05-11T13:01:51.939Z,9.47
2018-05-11T13:04:18.768Z,11.17
2018-05-11T13:06:45.653Z,10.00
2018-05-11T13:09:12.504Z,10.77
2018-05-11T13:11:39.315Z,11.23
2018-05-11T13:14:06.065Z,10.77
2018-05-11T13:16:33.049Z,10.50
2018-05-11T13:18:59.967Z,11.83
2018-05-11T13:21:27.598Z,10.00
2018-05-11T13:23:54.451Z,10.70
2018-05-11T13:26:21.349Z,10.40
2018-05-11T13:28:48.297Z,9.80
2018-05-11T13:31:15.090Z,9.20
2018-05-11T13:33:44.187Z,9.97
2018-05-11T13:36:13.832Z,9.37
2018-05-11T13:38:42.306Z,9.93
2018-05-11T13:41:09.748Z,8.90
2018-05-11T13:43:36.637Z,9.60
2018-05-11T13:46:03.729Z,8.53
2018-05-11T13:48:30.673Z,9.00
2018-05-11T13:50:57.505Z,9.00
2018-05-11T13:53:24.339Z,9.60
2018-05-11T13:55:51.185Z,11.80
2018-05-11T13:58:18.255Z,10.40
2018-05-11T14:00:45.217Z,11.40
2018-05-11T14:03:12.204Z,9.73
2018-05-11T14:05:38.924Z,10.93
2018-05-11T14:08:05.879Z,10.00
2018-05-11T14:10:32.833Z,9.27
2018-05-11T14:12:59.574Z,9.67
2018-05-11T14:15:26.355Z,10.17
2018-05-11T14:17:53.083Z,8.87
2018-05-11T14:20:19.958Z,11.00
2018-05-11T14:22:46.979Z,10.50
2018-05-11T14:25:13.816Z,8.60
2018-05-11T14:27:40.829Z,10.07
2018-05-11T14:30:07.755Z,11.10
2018-05-11T14:32:34.694Z,9.83
2018-05-11T14:35:01.482Z,9.37
2018-05-11T14:37:28.326Z,8.83
2018-05-11T14:39:55.114Z,9.13
2018-05-11T14:42:21.948Z,10.37
2018-05-11T14:44:48.755Z,10.93
2018-05-11T14:47:15.518Z,12.73
2018-05-11T14:49:42.286Z,10.10
2018-05-11T14:52:09.011Z,10.70
2018-05-11T14:54:37.388Z,9.20
2018-05-11T14:57:05.004Z,11.40
2018-05-11T14:59:32.000Z,9.27
2018-05-11T15:01:58.749Z,10.50
2018-05-11T15:04:25.468Z,10.17
2018-05-11T15:06:52.239Z,10.03
2018-05-11T15:09:18.968Z,9.30
2018-05-11T15:11:45.713Z,10.30
2018-05-11T15:14:13.259Z,8.40
2018-05-11T15:16:41.209Z,9.47
2018-05-11T15:19:08.023Z,9.50
2018-05-11T15:21:34.768Z,9.73
2018-05-11T15:24:01.499Z,10.13
2018-05-11T15:26:28.247Z,11.10
2018-05-11T15:28:55.009Z,9.87
2018-05-11T15:31:21.763Z,10.00
2018-05-11T15:33:48.547Z,8.47
2018-05-11T15:36:15.598Z,9.57
2018-05-11T15:38:42.355Z,9.43
2018-05-11T15:41:09.063Z,8.70
2018-05-11T15:43:35.836Z,10.43
2018-05-11T15:46:02.599Z,9.97
2018-05-11T15:48:29.334Z,9.57
2018-05-11T15:50:56.072Z,10.90
2018-05-11T15:53:22.841Z,8.60
2018-05-11T15:55:49.561Z,9.57
2018-05-11T15:58:16.448Z,8.40
2018-05-11T16:00:43.447Z,9.13
2018-05-11T16:03:10.511Z,8.43
2018-05-11T16:05:37.464Z,12.03
2018-05-11T16:08:05.674Z,10.23
2018-05-11T16:10:32.543Z,8.97
2018-05-11T16:12:59.472Z,13.47
2018-05-11T16:15:26.239Z,8.47
2018-05-11T16:17:53.106Z,8.50
2018-05-11T16:20:20.027Z,8.93
2018-05-11T16:22:47.091Z,8.73
2018-05-11T16:25:13.910Z,9.30
2018-05-11T16:27:40.841Z,8.93
2018-05-11T16:30:07.823Z,10.20
2018-05-11T16:32:35.089Z,9.53
2018-05-11T16:35:02.071Z,8.93
2018-05-11T16:37:29.094Z,8.63
2018-05-11T16:39:55.993Z,9.63
2018-05-11T16:42:22.813Z,9.67
2018-05-11T16:44:49.689Z,11.30
2018-05-11T16:47:16.508Z,9.87
2018-05-11T16:49:43.408Z,9.13
2018-05-11T16:52:10.347Z,9.97
2018-05-11T16:54:37.379Z,8.63
2018-05-11T16:57:04.394Z,9.13
2018-05-11T16:59:31.334Z,9.47
2018-05-11T17:01:58.117Z,8.60
2018-05-11T17:04:25.040Z,9.13
2018-05-11T17:06:51.890Z,9.70
2018-05-11T17:09:18.672Z,9.47
2018-05-11T17:11:45.533Z,10.50
2018-05-11T17:14:12.442Z,8.73
2018-05-11T17:16:39.347Z,8.73
2018-05-11T17:19:06.460Z,9.93
2018-05-11T17:21:33.249Z,11.23
2018-05-11T17:24:00.037Z,10.17
2018-05-11T17:26:26.878Z,10.80
2018-05-11T17:28:53.642Z,9.80
2018-05-11T17:31:21.344Z,11.43
2018-05-11T17:33:48.269Z,11.40
2018-05-11T17:36:15.035Z,10.67
2018-05-11T17:38:42.051Z,11.27
2018-05-11T17:41:08.875Z,14.17
2018-05-11T17:43:36.091Z,12.40
2018-05-11T17:46:03.037Z,11.27
2018-05-11T17:48:29.865Z,11.03
2018-05-11T17:50:56.866Z,10.90
2018-05-11T17:53:23.944Z,12.73
2018-05-11T17:55:50.807Z,11.70
2018-05-11T17:58:17.826Z,13.43
2018-05-11T18:00:44.630Z,11.43
2018-05-11T18:03:11.985Z,10.70
2018-05-11T18:05:41.303Z,11.70
2018-05-11T18:08:09.017Z,14.80
2018-05-11T18:10:37.873Z,12.27
2018-05-11T18:13:06.353Z,11.97
2018-05-11T18:15:34.663Z,12.20
2018-05-11T18:18:04.083Z,13.80
2018-05-11T18:20:33.261Z,13.07
2018-05-11T18:23:00.370Z,14.73
2018-05-11T18:25:29.615Z,14.43
2018-05-11T18:28:00.060Z,14.90
2018-05-11T18:30:27.365Z,15.43
2018-05-11T18:32:55.949Z,16.73
2018-05-11T18:35:24.223Z,15.83
2018-05-11T18:37:53.106Z,16.37
2018-05-11T18:40:20.470Z,16.57
2018-05-11T18:42:48.489Z,15.95
2018-05-11T18:45:17.665Z,18.47
2018-05-11T18:47:46.603Z,16.00
2018-05-11T18:50:15.060Z,14.90
2018-05-11T18:52:44.047Z,13.90
2018-05-11T18:55:14.832Z,16.10
2018-05-11T18:57:43.186Z,14.77
2018-05-11T19:00:11.353Z,14.98
2018-05-11T19:02:39.787Z,15.52
2018-05-11T19:05:08.723Z,15.20
2018-05-11T19:07:35.839Z,15.85
2018-05-11T19:10:04.643Z,14.75
2018-05-11T19:12:31.537Z,24.73
2018-05-11T19:14:58.481Z,15.80
2018-05-11T19:17:26.318Z,16.87
2018-05-11T19:19:55.612Z,16.87
2018-05-11T19:22:22.734Z,15.02
2018-05-11T19:24:49.983Z,26.00
2018-05-11T19:27:17.114Z,18.20
2018-05-11T19:29:44.687Z,17.23
2018-05-11T19:32:12.549Z,18.05
2018-05-11T19:34:40.545Z,14.50
2018-05-11T19:37:09.107Z,15.35
2018-05-11T19:39:39.033Z,15.70
2018-05-11T19:42:07.607Z,15.82
2018-05-11T19:44:35.702Z,16.15
2018-05-11T19:47:03.034Z,16.05
2018-05-11T19:49:30.949Z,17.02
2018-05-11T19:51:57.902Z,19.15
2018-05-11T19:54:26.124Z,17.50
2018-05-11T19:56:54.259Z,20.92
2018-05-11T19:59:23.730Z,19.62
2018-05-11T20:01:51.713Z,16.37
2018-05-11T20:04:20.040Z,18.30
2018-05-11T20:06:47.839Z,16.67
2018-05-11T20:09:14.840Z,18.55
2018-05-11T20:11:41.616Z,17.67
2018-05-11T20:14:08.428Z,18.40
2018-05-11T20:16:36.624Z,19.50
2018-05-11T20:19:03.530Z,13.47
2018-05-11T20:21:30.500Z,15.60
2018-05-11T20:23:59.608Z,17.50
2018-05-11T20:26:26.589Z,14.45
2018-05-11T20:28:53.715Z,16.98
2018-05-11T20:31:20.965Z,14.70
2018-05-11T20:33:47.844Z,17.15
2018-05-11T20:36:15.114Z,16.75
2018-05-11T20:38:42.124Z,14.80
2018-05-11T20:41:09.324Z,17.80
2018-05-11T20:43:36.444Z,20.48
2018-05-11T20:46:03.327Z,17.08
2018-05-11T20:48:30.192Z,16.20
2018-05-11T20:50:56.890Z,16.33
2018-05-11T20:53:24.315Z,25.30
2018-05-11T20:55:51.702Z,27.35
2018-05-11T20:58:18.468Z,21.37
2018-05-11T21:00:45.216Z,31.87
2018-05-11T21:03:11.951Z,25.15
2018-05-11T21:05:38.698Z,24.60
2018-05-11T21:08:05.467Z,24.37
2018-05-11T21:10:33.372Z,24.35
2018-05-11T21:13:00.164Z,24.10
2018-05-11T21:15:26.901Z,23.10
2018-05-11T21:17:53.662Z,20.05
2018-05-11T21:20:20.412Z,17.80
2018-05-11T21:22:47.155Z,19.83
2018-05-11T21:25:14.563Z,20.05
2018-05-11T21:27:41.315Z,22.58
2018-05-11T21:30:08.452Z,16.80
2018-05-11T21:32:35.251Z,18.52
2018-05-11T21:35:02.085Z,18.40
2018-05-11T21:37:28.977Z,18.05
2018-05-11T21:39:55.903Z,19.15
2018-05-11T21:42:22.860Z,21.00
2018-05-11T21:44:49.740Z,19.98
2018-05-11T21:47:16.850Z,20.85
2018-05-11T21:49:43.619Z,20.05
2018-05-11T21:52:10.561Z,19.50
2018-05-11T21:54:37.343Z,18.17
2018-05-11T21:57:04.759Z,19.80
2018-05-11T21:59:31.742Z,19.80
2018-05-11T22:01:58.646Z,20.62
2018-05-11T22:04:25.412Z,18.70
2018-05-11T22:06:52.915Z,19.87
2018-05-11T22:09:19.657Z,19.20
2018-05-11T22:11:46.401Z,19.52
2018-05-11T22:14:13.184Z,17.75
2018-05-11T22:16:40.088Z,18.15
2018-05-11T22:19:06.902Z,19.10
2018-05-11T22:21:34.001Z,20.02
2018-05-11T22:24:01.021Z,35.13
2018-05-11T22:26:28.014Z,28.92
2018-05-11T22:28:54.768Z,27.95
2018-05-11T22:31:21.507Z,21.50
2018-05-11T22:33:48.252Z,22.30
2018-05-11T22:36:14.989Z,23.23
2018-05-11T22:38:41.740Z,21.17
2018-05-11T22:41:08.479Z,22.13
2018-05-11T22:43:35.249Z,19.33
2018-05-11T22:46:02.305Z,20.30
2018-05-11T22:48:29.033Z,19.48
2018-05-11T22:50:56.214Z,19.70
2018-05-11T22:53:23.307Z,20.23
2018-05-11T22:55:50.427Z,21.12
2018-05-11T22:58:17.392Z,21.00
2018-05-11T23:00:45.182Z,20.92
2018-05-11T23:03:12.672Z,20.67
2018-05-11T23:05:39.595Z,19.52
2018-05-11T23:08:06.515Z,20.02
2018-05-11T23:10:33.495Z,22.83
2018-05-11T23:13:00.477Z,24.05
2018-05-11T23:15:27.545Z,19.83
2018-05-11T23:17:54.629Z,19.77
2018-05-11T23:20:21.613Z,20.35
2018-05-11T23:22:48.759Z,19.10
2018-05-11T23:25:15.777Z,21.62
2018-05-11T23:27:43.029Z,22.55
2018-05-11T23:30:09.907Z,23.30
2018-05-11T23:32:36.911Z,20.02
2018-05-11T23:35:03.994Z,22.02
2018-05-11T23:37:31.044Z,23.65
2018-05-11T23:39:58.458Z,20.12
2018-05-11T23:42:25.413Z,19.75
2018-05-11T23:44:52.478Z,21.20
2018-05-11T23:47:19.498Z,20.55
2018-05-11T23:49:46.758Z,20.00
2018-05-11T23:52:13.831Z,20.73
2018-05-11T23:54:40.910Z,19.77
2018-05-11T23:57:07.939Z,21.12
2018-05-11T23:59:34.973Z,18.80
